EmailTwitter


Observations de surface / France / LFMK (07635)

Régions: Québec | Canada | États-Unis | Europe | France | UK | Ailleurs
Station
Affichage
Infos & localisation pour LFMK (07635) | Aide pour décoder les METARs

Observations prises le 2017-07-21 à 18H30 UTC à CARCASSONNE/SALV, FR (LFMK)

Etat du ciel: partiellement nuageux.

Température: 25.0 Celsius

Point de rosée: 18.0 Celsius

Humidité relative: 65%

Indice Humidex: 31.

Vents: Nord-ouest à 19 km/h ou 10 noeuds.

Pression au niveau moyen de la mer: 101.10 kilopascals.

Visibilité horizontale: 6.21 milles terrestres ou 9.94 kilomètres.

Hauteur du plafond: 1646 mètres ( 5400 pieds ).

Observation METAR:

LFMK 211830Z AUTO 30010KT 9999 BKN054 25/18 Q1011 =